createdAt,value
2019-03-09T00:02:24.033Z,5.70
2019-03-09T00:04:57.933Z,5.67
2019-03-09T00:07:31.952Z,5.50
2019-03-09T00:10:08.702Z,5.63
2019-03-09T00:12:42.528Z,6.73
2019-03-09T00:15:16.300Z,5.80
2019-03-09T00:17:50.233Z,5.27
2019-03-09T00:20:24.975Z,5.10
2019-03-09T00:23:28.356Z,6.03
2019-03-09T00:26:25.808Z,5.10
2019-03-09T00:29:06.902Z,4.77
2019-03-09T00:31:51.323Z,4.90
2019-03-09T00:34:25.223Z,4.70
2019-03-09T00:36:59.384Z,5.30
2019-03-09T00:39:34.227Z,4.27
2019-03-09T00:42:08.096Z,3.43
2019-03-09T00:44:43.339Z,4.07
2019-03-09T00:47:18.783Z,4.37
2019-03-09T00:49:54.431Z,3.90
2019-03-09T00:52:29.914Z,5.57
2019-03-09T00:55:03.793Z,3.43
2019-03-09T00:57:38.617Z,3.33
2019-03-09T01:00:18.572Z,4.53
2019-03-09T01:02:52.260Z,3.80
2019-03-09T01:05:25.976Z,4.13
2019-03-09T01:07:59.995Z,4.20
2019-03-09T01:10:34.824Z,3.83
2019-03-09T01:13:10.163Z,4.20
2019-03-09T01:15:45.301Z,3.77
2019-03-09T01:18:18.946Z,3.60
2019-03-09T01:20:52.745Z,3.70
2019-03-09T01:23:26.355Z,4.80
2019-03-09T01:26:01.925Z,4.00
2019-03-09T01:28:35.990Z,4.17
2019-03-09T01:31:10.194Z,3.23
2019-03-09T01:33:45.132Z,3.27
2019-03-09T01:36:19.243Z,3.37
2019-03-09T01:38:53.988Z,3.10
2019-03-09T01:41:29.633Z,2.80
2019-03-09T01:44:05.169Z,3.03
2019-03-09T01:46:39.599Z,3.40
2019-03-09T01:49:13.325Z,2.90
2019-03-09T01:51:47.363Z,2.90
2019-03-09T01:54:21.043Z,3.73
2019-03-09T01:56:54.911Z,2.77
2019-03-09T01:59:29.813Z,3.60
2019-03-09T02:02:03.458Z,3.10
2019-03-09T02:04:37.325Z,3.27
2019-03-09T02:07:12.854Z,3.30
2019-03-09T02:09:46.895Z,3.40
2019-03-09T02:12:22.789Z,3.70
2019-03-09T02:14:58.641Z,3.50
2019-03-09T02:17:32.324Z,3.23
2019-03-09T02:20:06.705Z,3.67
2019-03-09T02:22:41.766Z,3.77
2019-03-09T02:25:15.832Z,4.13
2019-03-09T02:27:50.857Z,3.27
2019-03-09T02:30:24.929Z,3.57
2019-03-09T02:32:58.974Z,3.00
2019-03-09T02:35:33.637Z,3.40
2019-03-09T02:38:26.489Z,3.13
2019-03-09T02:41:03.192Z,3.60
2019-03-09T02:43:36.915Z,3.80
2019-03-09T02:46:10.543Z,3.67
2019-03-09T02:48:44.435Z,3.23
2019-03-09T02:51:19.308Z,3.50
2019-03-09T02:53:53.363Z,3.20
2019-03-09T02:56:27.138Z,3.53
2019-03-09T02:59:01.414Z,3.07
2019-03-09T03:01:54.054Z,3.57
2019-03-09T03:04:27.861Z,3.60
2019-03-09T03:07:01.661Z,4.20
2019-03-09T03:09:35.541Z,3.53
2019-03-09T03:12:09.303Z,3.10
2019-03-09T03:14:44.145Z,4.30
2019-03-09T03:17:17.825Z,4.00
2019-03-09T03:19:52.261Z,3.87
2019-03-09T03:22:26.926Z,3.90
2019-03-09T03:25:01.718Z,4.40
2019-03-09T03:27:38.469Z,5.67
2019-03-09T03:30:12.690Z,4.43
2019-03-09T03:32:47.636Z,5.10
2019-03-09T03:35:21.373Z,5.23
2019-03-09T03:37:55.241Z,5.40
2019-03-09T03:40:28.947Z,5.07
2019-03-09T03:43:02.643Z,4.90
2019-03-09T03:45:36.409Z,4.73
2019-03-09T03:48:10.256Z,3.87
2019-03-09T03:50:43.899Z,3.77
2019-03-09T03:53:19.047Z,4.30
2019-03-09T03:55:54.969Z,3.87
2019-03-09T03:58:29.130Z,4.43
2019-03-09T04:01:02.993Z,3.83
2019-03-09T04:03:36.792Z,4.07
2019-03-09T04:06:10.958Z,3.93
2019-03-09T04:08:46.194Z,3.53
2019-03-09T04:11:20.426Z,3.37
2019-03-09T04:13:54.385Z,2.83
2019-03-09T04:16:28.279Z,4.50
2019-03-09T04:19:05.595Z,3.57
2019-03-09T04:21:41.154Z,3.80
2019-03-09T04:24:14.903Z,3.53
2019-03-09T04:26:48.912Z,4.20
2019-03-09T04:29:23.155Z,3.37
2019-03-09T04:31:57.387Z,3.60
2019-03-09T04:34:31.574Z,3.30
2019-03-09T04:37:05.388Z,2.73
2019-03-09T04:39:39.233Z,2.93
2019-03-09T04:42:15.623Z,2.30
2019-03-09T04:44:49.500Z,2.70
2019-03-09T04:47:24.699Z,2.70
2019-03-09T04:49:58.441Z,3.37
2019-03-09T04:52:33.370Z,3.13
2019-03-09T04:55:09.042Z,2.87
2019-03-09T04:57:43.226Z,2.60
2019-03-09T05:00:19.402Z,2.43
2019-03-09T05:02:54.845Z,2.70
2019-03-09T05:05:29.779Z,2.57
2019-03-09T05:08:15.486Z,3.10
2019-03-09T05:11:10.820Z,2.40
2019-03-09T05:13:57.253Z,2.40
2019-03-09T05:16:31.137Z,2.40
2019-03-09T05:19:06.306Z,3.13
2019-03-09T05:21:40.220Z,2.60
2019-03-09T05:24:14.288Z,2.43
2019-03-09T05:26:48.167Z,2.40
2019-03-09T05:29:22.161Z,1.93
2019-03-09T05:31:56.132Z,2.40
2019-03-09T05:34:32.786Z,2.03
2019-03-09T05:37:06.954Z,2.07
2019-03-09T05:39:42.191Z,2.07
2019-03-09T05:42:17.607Z,1.90
2019-03-09T05:44:52.998Z,2.17
2019-03-09T05:47:27.138Z,2.07
2019-03-09T05:50:00.799Z,1.93
2019-03-09T05:52:38.686Z,1.83
2019-03-09T05:55:21.302Z,1.83
2019-03-09T05:57:55.353Z,2.50
2019-03-09T06:00:29.371Z,2.03
2019-03-09T06:03:03.806Z,2.07
2019-03-09T06:06:00.793Z,2.27
2019-03-09T06:08:37.758Z,1.90
2019-03-09T06:11:13.283Z,1.90
2019-03-09T06:13:47.128Z,2.10
2019-03-09T06:16:20.936Z,1.73
2019-03-09T06:18:54.853Z,2.00
2019-03-09T06:21:30.195Z,2.23
2019-03-09T06:24:04.152Z,2.50
2019-03-09T06:26:39.357Z,2.20
2019-03-09T06:29:13.423Z,2.50
2019-03-09T06:32:51.939Z,2.80
2019-03-09T06:35:29.330Z,3.10
2019-03-09T06:38:34.044Z,3.43
2019-03-09T06:41:09.769Z,3.60
2019-03-09T06:43:43.500Z,2.93
2019-03-09T06:46:18.678Z,2.83
2019-03-09T06:48:52.349Z,3.13
2019-03-09T06:51:26.045Z,2.63
2019-03-09T06:54:02.007Z,3.10
2019-03-09T06:56:37.141Z,3.10
2019-03-09T06:59:12.587Z,2.50
2019-03-09T07:01:47.405Z,3.03
2019-03-09T07:04:23.578Z,2.63
2019-03-09T07:06:57.315Z,2.50
2019-03-09T07:09:33.056Z,2.83
2019-03-09T07:12:09.569Z,2.73
2019-03-09T07:15:21.921Z,3.13
2019-03-09T07:18:01.132Z,3.10
2019-03-09T07:20:36.671Z,3.17
2019-03-09T07:23:12.055Z,2.53
2019-03-09T07:25:46.309Z,2.90
2019-03-09T07:28:20.412Z,2.83
2019-03-09T07:30:55.695Z,2.40
2019-03-09T07:33:29.568Z,2.60
2019-03-09T07:36:03.881Z,2.53
2019-03-09T07:38:37.736Z,2.47
2019-03-09T07:41:11.369Z,2.60
2019-03-09T07:43:45.149Z,2.47
2019-03-09T07:46:20.283Z,2.27
2019-03-09T07:48:54.007Z,2.63
2019-03-09T07:51:28.921Z,3.00
2019-03-09T07:54:02.983Z,2.73
2019-03-09T07:56:37.655Z,2.93
2019-03-09T07:59:11.863Z,2.43
2019-03-09T08:01:47.664Z,2.13
2019-03-09T08:04:22.460Z,2.80
2019-03-09T08:06:56.230Z,1.63
2019-03-09T08:09:32.633Z,3.00
2019-03-09T08:12:06.278Z,2.30
2019-03-09T08:14:40.021Z,2.47
2019-03-09T08:17:15.233Z,2.97
2019-03-09T08:19:50.532Z,2.70
2019-03-09T08:22:24.771Z,2.37
2019-03-09T08:24:58.659Z,2.00
2019-03-09T08:27:34.316Z,2.93
2019-03-09T08:30:11.773Z,2.47
2019-03-09T08:32:46.537Z,2.47
2019-03-09T08:35:21.667Z,2.20
2019-03-09T08:37:55.478Z,2.87
2019-03-09T08:40:30.493Z,2.70
2019-03-09T08:43:04.213Z,2.17
2019-03-09T08:45:38.117Z,1.90
2019-03-09T08:48:13.805Z,3.30
2019-03-09T08:50:49.439Z,2.50
2019-03-09T08:53:23.507Z,2.50
2019-03-09T08:55:59.494Z,3.10
2019-03-09T08:58:33.385Z,2.77
2019-03-09T09:01:07.301Z,3.10
2019-03-09T09:03:42.198Z,3.07
2019-03-09T09:06:16.014Z,2.67
2019-03-09T09:08:49.868Z,2.73
2019-03-09T09:11:23.500Z,2.70
2019-03-09T09:13:59.052Z,2.53
2019-03-09T09:16:34.532Z,2.13
2019-03-09T09:19:08.872Z,2.80
2019-03-09T09:21:42.843Z,2.83
2019-03-09T09:24:16.580Z,2.80
2019-03-09T09:26:50.776Z,3.13
2019-03-09T09:29:26.157Z,2.53
2019-03-09T09:32:00.906Z,2.30
2019-03-09T09:34:35.868Z,2.87
2019-03-09T09:37:10.634Z,2.57
2019-03-09T09:39:47.680Z,2.80
2019-03-09T09:42:21.611Z,2.77
2019-03-09T09:44:55.438Z,2.87
2019-03-09T09:47:30.730Z,3.10
2019-03-09T09:50:04.789Z,3.10
2019-03-09T09:52:40.391Z,3.70
2019-03-09T09:55:16.308Z,2.70
2019-03-09T09:57:50.316Z,2.60
2019-03-09T10:00:29.704Z,2.43
2019-03-09T10:03:03.930Z,3.30
2019-03-09T10:05:37.899Z,3.00
2019-03-09T10:08:11.647Z,3.37
2019-03-09T10:10:45.580Z,2.53
2019-03-09T10:13:20.495Z,3.20
2019-03-09T10:15:54.191Z,2.77
2019-03-09T10:18:28.059Z,2.43
2019-03-09T10:21:02.141Z,2.87
2019-03-09T10:23:36.035Z,3.17
2019-03-09T10:26:10.915Z,3.57
2019-03-09T10:28:45.117Z,3.07
2019-03-09T10:31:20.481Z,2.80
2019-03-09T10:33:54.245Z,2.90
2019-03-09T10:36:28.158Z,3.03
2019-03-09T10:39:05.105Z,3.30
2019-03-09T10:41:39.105Z,2.57
2019-03-09T10:44:12.899Z,3.13
2019-03-09T10:46:46.650Z,3.20
2019-03-09T10:49:22.151Z,3.23
2019-03-09T10:51:56.163Z,2.40
2019-03-09T10:54:36.008Z,3.57
2019-03-09T10:57:08.549Z,3.03
2019-03-09T10:59:42.734Z,3.40
2019-03-09T11:02:17.470Z,2.60
2019-03-09T11:04:52.726Z,3.57
2019-03-09T11:07:27.669Z,3.33
2019-03-09T11:10:01.453Z,3.90
2019-03-09T11:12:35.156Z,3.77
2019-03-09T11:15:08.879Z,4.27
2019-03-09T11:17:42.633Z,3.40
2019-03-09T11:20:16.694Z,3.10
2019-03-09T11:22:52.343Z,3.73
2019-03-09T11:25:25.995Z,3.60
2019-03-09T11:28:12.901Z,3.17
2019-03-09T11:30:47.613Z,3.80
2019-03-09T11:33:21.802Z,3.63
2019-03-09T11:35:56.953Z,3.60
2019-03-09T11:38:31.106Z,3.73
2019-03-09T11:41:04.962Z,3.43
2019-03-09T11:43:38.791Z,3.47
2019-03-09T11:46:12.855Z,3.50
2019-03-09T11:48:46.483Z,3.50
2019-03-09T11:51:20.279Z,3.20
2019-03-09T11:53:54.474Z,3.10
2019-03-09T11:56:28.779Z,3.33
2019-03-09T11:59:04.627Z,4.03
2019-03-09T12:01:39.722Z,4.10
2019-03-09T12:04:14.849Z,4.17
2019-03-09T12:06:50.561Z,4.00
2019-03-09T12:09:24.364Z,3.10
2019-03-09T12:12:05.992Z,3.53
2019-03-09T12:14:40.512Z,4.40
2019-03-09T12:17:14.357Z,4.30
2019-03-09T12:19:48.364Z,3.77
2019-03-09T12:22:24.773Z,4.17
2019-03-09T12:24:58.784Z,4.33
2019-03-09T12:27:34.342Z,4.40
2019-03-09T12:30:10.676Z,3.80
2019-03-09T12:32:44.567Z,3.40
2019-03-09T12:35:18.592Z,3.87
2019-03-09T12:37:53.067Z,4.30
2019-03-09T12:40:27.023Z,4.40
2019-03-09T12:43:01.001Z,4.70
2019-03-09T12:45:34.974Z,6.97
2019-03-09T12:48:09.094Z,4.50
2019-03-09T12:50:44.329Z,5.60
2019-03-09T12:53:19.582Z,4.67
2019-03-09T12:55:54.531Z,5.57
2019-03-09T12:58:28.297Z,5.47
2019-03-09T13:01:02.363Z,7.17
2019-03-09T13:03:37.747Z,6.33
2019-03-09T13:06:12.044Z,6.60
2019-03-09T13:08:45.990Z,5.90
2019-03-09T13:11:19.642Z,6.23
2019-03-09T13:13:55.212Z,5.87
2019-03-09T13:16:28.955Z,9.17
2019-03-09T13:19:02.945Z,6.00
2019-03-09T13:21:38.624Z,7.20
2019-03-09T13:24:12.519Z,6.30
2019-03-09T13:26:47.163Z,6.93
2019-03-09T13:29:21.831Z,7.40
2019-03-09T13:31:55.794Z,6.67
2019-03-09T13:34:31.398Z,6.30
2019-03-09T13:37:05.486Z,5.17
2019-03-09T13:39:39.733Z,5.80
2019-03-09T13:42:14.843Z,5.73
2019-03-09T13:44:49.066Z,5.70
2019-03-09T13:47:22.939Z,6.20
2019-03-09T13:49:58.554Z,6.63
2019-03-09T13:52:34.251Z,6.17
2019-03-09T13:55:09.585Z,7.13
2019-03-09T13:57:44.684Z,5.93
2019-03-09T14:00:18.982Z,3.57
2019-03-09T14:02:52.788Z,2.97
2019-03-09T14:05:26.888Z,3.43
2019-03-09T14:08:00.811Z,3.90
2019-03-09T14:10:34.850Z,4.30
2019-03-09T14:13:09.104Z,4.10
2019-03-09T14:15:43.880Z,4.30
2019-03-09T14:18:22.789Z,4.77
2019-03-09T14:20:56.716Z,4.90
2019-03-09T14:23:30.659Z,4.77
2019-03-09T14:26:04.449Z,5.33
2019-03-09T14:28:38.202Z,6.00
2019-03-09T14:31:11.861Z,5.00
2019-03-09T14:33:47.333Z,6.10
2019-03-09T14:36:22.824Z,6.40
2019-03-09T14:38:56.739Z,6.77
2019-03-09T14:41:32.043Z,8.20
2019-03-09T14:44:05.791Z,7.80
2019-03-09T14:46:39.973Z,11.47
2019-03-09T14:49:13.970Z,9.70
2019-03-09T14:51:47.610Z,9.67
2019-03-09T14:54:21.396Z,7.13
2019-03-09T14:56:55.577Z,7.23
2019-03-09T14:59:29.417Z,10.67
2019-03-09T15:02:04.929Z,6.73
2019-03-09T15:04:38.674Z,7.97
2019-03-09T15:07:12.707Z,5.87
2019-03-09T15:09:46.264Z,6.07
2019-03-09T15:12:19.881Z,6.50
2019-03-09T15:14:53.447Z,6.87
2019-03-09T15:17:27.233Z,7.70
2019-03-09T15:20:03.031Z,7.20
2019-03-09T15:22:37.371Z,5.37
2019-03-09T15:25:12.014Z,5.57
2019-03-09T15:27:46.101Z,5.27
2019-03-09T15:30:19.926Z,5.90
2019-03-09T15:32:53.682Z,6.40
2019-03-09T15:35:30.355Z,6.57
2019-03-09T15:38:04.113Z,7.50
2019-03-09T15:40:38.090Z,7.03
2019-03-09T15:43:11.998Z,4.90
2019-03-09T15:45:49.420Z,5.70
2019-03-09T15:48:24.803Z,7.40
2019-03-09T15:50:58.822Z,6.07
2019-03-09T15:53:34.320Z,6.10
2019-03-09T15:56:08.128Z,3.50
2019-03-09T15:58:41.804Z,2.40
2019-03-09T16:01:15.571Z,1.90
2019-03-09T16:03:50.060Z,1.20
2019-03-09T16:06:25.681Z,1.20
2019-03-09T16:09:01.085Z,1.40
2019-03-09T16:11:44.376Z,1.60
2019-03-09T16:14:10.318Z,1.80
2019-03-09T16:16:44.247Z,1.80
2019-03-09T16:19:19.584Z,2.27
2019-03-09T16:21:55.014Z,2.07
2019-03-09T16:24:29.230Z,2.57
2019-03-09T16:27:04.171Z,2.80
2019-03-09T16:29:40.519Z,2.90
2019-03-09T16:32:14.567Z,2.47
2019-03-09T16:34:49.277Z,2.40
2019-03-09T16:37:23.880Z,2.73
2019-03-09T16:39:58.271Z,2.97
2019-03-09T16:42:32.031Z,2.80
2019-03-09T16:45:05.977Z,2.80
2019-03-09T16:47:40.113Z,2.97
2019-03-09T16:50:15.709Z,2.80
2019-03-09T16:52:52.500Z,3.20
2019-03-09T16:55:27.470Z,3.00
2019-03-09T16:58:01.262Z,2.90
2019-03-09T17:00:34.856Z,3.23
2019-03-09T17:03:08.619Z,4.57
2019-03-09T17:05:42.250Z,2.90
2019-03-09T17:08:16.497Z,3.33
2019-03-09T17:10:50.652Z,3.10
2019-03-09T17:13:24.356Z,4.00
2019-03-09T17:15:58.378Z,2.80
2019-03-09T17:18:32.661Z,2.90
2019-03-09T17:21:07.420Z,2.20
2019-03-09T17:23:41.126Z,2.27
2019-03-09T17:26:15.070Z,2.07
2019-03-09T17:28:49.078Z,2.00
2019-03-09T17:31:23.799Z,2.10
2019-03-09T17:33:57.785Z,1.73
2019-03-09T17:36:31.502Z,2.30
2019-03-09T17:39:06.032Z,1.60
2019-03-09T17:41:41.107Z,1.27
2019-03-09T17:44:15.101Z,1.23
2019-03-09T17:46:49.085Z,1.60
2019-03-09T17:49:22.854Z,1.30
2019-03-09T17:51:57.182Z,1.40
2019-03-09T17:54:31.023Z,1.10
2019-03-09T17:57:04.932Z,1.23
2019-03-09T17:59:39.284Z,1.60
2019-03-09T18:02:12.932Z,1.30
2019-03-09T18:04:47.131Z,1.30
2019-03-09T18:07:21.374Z,1.37
2019-03-09T18:09:55.527Z,1.00
2019-03-09T18:12:29.522Z,1.10
2019-03-09T18:15:03.292Z,1.20
2019-03-09T18:17:37.034Z,1.40
2019-03-09T18:20:12.850Z,1.13
2019-03-09T18:22:46.808Z,1.43
2019-03-09T18:25:20.837Z,1.90
2019-03-09T18:27:55.005Z,1.90
2019-03-09T18:30:28.815Z,1.20
2019-03-09T18:33:03.878Z,0.90
2019-03-09T18:35:41.645Z,1.27
2019-03-09T18:38:18.038Z,1.23
2019-03-09T18:40:54.288Z,1.10
2019-03-09T18:43:28.253Z,1.10
2019-03-09T18:46:02.336Z,1.60
2019-03-09T18:48:36.555Z,1.23
2019-03-09T18:51:10.456Z,1.80
2019-03-09T18:53:44.172Z,1.83
2019-03-09T18:56:19.874Z,2.90
2019-03-09T18:58:56.184Z,1.53
2019-03-09T19:01:30.141Z,1.50
2019-03-09T19:04:05.648Z,1.33
2019-03-09T19:06:39.523Z,1.90
2019-03-09T19:09:17.838Z,1.57
2019-03-09T19:11:51.835Z,1.40
2019-03-09T19:14:25.755Z,1.60
2019-03-09T19:16:59.655Z,1.37
2019-03-09T19:19:34.253Z,1.50
2019-03-09T19:22:09.075Z,1.50
2019-03-09T19:24:43.776Z,1.43
2019-03-09T19:27:17.978Z,1.20
2019-03-09T19:29:51.687Z,1.30
2019-03-09T19:32:25.918Z,1.20
2019-03-09T19:35:00.159Z,2.30
2019-03-09T19:37:37.214Z,1.60
2019-03-09T19:40:13.638Z,1.40
2019-03-09T19:42:48.623Z,1.90
2019-03-09T19:45:23.137Z,1.87
2019-03-09T19:47:57.892Z,1.43
2019-03-09T19:50:33.104Z,1.70
2019-03-09T19:53:06.970Z,1.47
2019-03-09T19:55:40.624Z,1.63
2019-03-09T19:58:15.321Z,1.40
2019-03-09T20:00:49.163Z,1.90
2019-03-09T20:03:24.281Z,1.53
2019-03-09T20:06:00.164Z,1.67
2019-03-09T20:08:34.137Z,2.20
2019-03-09T20:11:08.042Z,2.03
2019-03-09T20:13:41.880Z,1.97
2019-03-09T20:16:16.104Z,2.03
2019-03-09T20:18:58.206Z,1.50
2019-03-09T20:21:32.096Z,2.03
2019-03-09T20:24:07.001Z,1.73
2019-03-09T20:26:41.006Z,1.30
2019-03-09T20:29:18.550Z,1.20
2019-03-09T20:31:52.435Z,1.63
2019-03-09T20:34:28.869Z,1.70
2019-03-09T20:37:03.658Z,1.60
2019-03-09T20:39:42.977Z,1.60
2019-03-09T20:42:16.840Z,1.90
2019-03-09T20:44:50.605Z,1.77
2019-03-09T20:47:24.413Z,1.57
2019-03-09T20:49:58.811Z,1.93
2019-03-09T20:52:34.996Z,2.00
2019-03-09T20:55:09.208Z,1.63
2019-03-09T20:57:43.073Z,1.53
2019-03-09T21:00:18.218Z,1.83
2019-03-09T21:02:52.991Z,1.80
2019-03-09T21:05:26.870Z,2.00
2019-03-09T21:08:02.759Z,1.93
2019-03-09T21:10:38.406Z,1.40
2019-03-09T21:13:12.595Z,2.00
2019-03-09T21:15:46.900Z,1.80
2019-03-09T21:18:20.864Z,1.47
2019-03-09T21:20:55.072Z,2.00
2019-03-09T21:23:30.623Z,2.07
2019-03-09T21:26:11.253Z,1.50
2019-03-09T21:28:45.041Z,1.30
2019-03-09T21:31:19.383Z,2.10
2019-03-09T21:33:53.216Z,1.50
2019-03-09T21:36:28.393Z,1.47
2019-03-09T21:39:02.477Z,2.10
2019-03-09T21:41:38.084Z,1.47
2019-03-09T21:44:13.779Z,1.60
2019-03-09T21:46:48.082Z,1.50
2019-03-09T21:49:22.483Z,1.87
2019-03-09T21:51:59.747Z,1.50
2019-03-09T21:54:33.742Z,1.40
2019-03-09T21:57:07.697Z,1.20
2019-03-09T21:59:41.736Z,1.33
2019-03-09T22:02:17.912Z,1.80
2019-03-09T22:04:52.006Z,1.00
2019-03-09T22:07:27.115Z,1.33
2019-03-09T22:10:01.005Z,1.20
2019-03-09T22:12:35.494Z,1.57
2019-03-09T22:15:10.629Z,1.90
2019-03-09T22:17:44.536Z,1.73
2019-03-09T22:20:20.524Z,2.40
2019-03-09T22:22:53.802Z,1.30
2019-03-09T22:25:27.760Z,1.83
2019-03-09T22:28:03.242Z,1.37
2019-03-09T22:30:37.507Z,1.53
2019-03-09T22:33:11.375Z,2.00
2019-03-09T22:35:45.074Z,1.37
2019-03-09T22:38:19.137Z,2.20
2019-03-09T22:40:52.828Z,2.07
2019-03-09T22:43:26.622Z,2.17
2019-03-09T22:46:03.183Z,1.40
2019-03-09T22:48:38.002Z,1.57
2019-03-09T22:51:11.762Z,1.57
2019-03-09T22:53:46.803Z,1.90
2019-03-09T22:56:20.596Z,1.67
2019-03-09T22:58:54.249Z,2.30
2019-03-09T23:01:29.502Z,1.67
2019-03-09T23:04:03.474Z,1.57
2019-03-09T23:06:37.215Z,1.60
2019-03-09T23:09:12.801Z,1.93
2019-03-09T23:11:49.643Z,1.80
2019-03-09T23:14:23.315Z,1.97
2019-03-09T23:16:58.181Z,1.57
2019-03-09T23:19:32.398Z,1.90
2019-03-09T23:22:06.203Z,1.57
2019-03-09T23:24:39.898Z,1.73
2019-03-09T23:27:15.355Z,1.90
2019-03-09T23:29:48.989Z,2.30
2019-03-09T23:32:24.406Z,1.80
2019-03-09T23:34:58.229Z,2.47
2019-03-09T23:37:32.164Z,1.50
2019-03-09T23:40:06.410Z,1.77
2019-03-09T23:42:41.616Z,2.93
2019-03-09T23:45:16.702Z,1.67
2019-03-09T23:47:50.650Z,1.70
2019-03-09T23:50:25.547Z,2.00
2019-03-09T23:52:59.352Z,1.90
2019-03-09T23:55:33.313Z,2.43
2019-03-09T23:58:07.284Z,2.20
